メインページ
METAR-TAF:

METAR-TAF

空港 :

スタンリー, フォークランド諸島

マウント・プレザント空軍基地

緯度: 51-49S, 経度: 058-27W, 海抜: 74m

現時点の気象観測

当レポートは27分前の01:50(UTC)に作成
北/北西の風 6kt
気温 2°C
湿度 93%
気圧 1011 hPa
視程10km以上
高度1600ftの雲はほとんどない
高度20000ftの千切れ雲あり

METAR: EGYP 010150Z 33006KT 9999 FEW016 BKN200 02/01 Q1011 BLU

時間: 23:17 (02:17 UTC)

予報

当レポートは4時間3分前の22:14(UTC)に作成
予報は01日の 00時(UTC)から 01日の 18時(UTC)まで有効
変向風 5kt
視程10km以上
高度3000ftの雲は散在している
01日の 00時(UTC)から 01日の 03時(UTC)まで徐々に
北/北東の風 15kt
01日の 00時(UTC)から 01日の 03時(UTC)まで一時的に
高度2000ftの雲は散在している
01日の 06時(UTC)から 01日の 09時(UTC)まで徐々に
の風 20kt、最大30ktの突風を伴う
高度2000ftの雲は散在している
確率 40% :
01日の 10時(UTC)から 01日の 18時(UTC)まで一時的に
視程: 7000m
高度800ftの雲は散在している
小雨
確率 40% :
01日の 12時(UTC)から 01日の 18時(UTC)まで一時的に
の風 25kt、最大40ktの突風を伴う
確率 30% :

TAF: EGYP 302214Z 0100/0118 VRB05KT 9999 SCT030 BECMG 0100/0103 02015KT TEMPO 0100/0103 SCT020 BECMG 0106/0109 01020G30KT SCT020 520003 PROB40 TEMPO 0110/0118 7000 -RA SCT008 PROB40 TEMPO 0112/0118 36025G40KT 530003 PROB30 TEMPO 0112/0118 VRB08KT SCT004 560003

4,000以上の空港の気象観測と天気予報(METAR報とTAF報)

利用可能な観測所は地図上に黄色い丸と赤い丸で示す。

丸の上にカーソルを重ねると観測所名を参照できる。

次にクリックすると気象観測と天気予報を参照できる。

マップの切り替え:黒色「×」印の緑ボタンをクリックして拡大、「-」印の緑ボタンをクリックして縮小、緑色の三角印をクリックして隣りの地図に切り替え


METAR-TAF: